sensor_id;sensor_type;location;lat;lon;timestamp;pressure;altitude;pressure_sealevel;temperature;humidity
13486;BME280;6815;59.336;17.998;2023-03-01T00:01:49;52216.91;;;-145.37;64.48
13486;BME280;6815;59.336;17.998;2023-03-01T00:04:15;52232.88;;;-145.37;64.91
13486;BME280;6815;59.336;17.998;2023-03-01T00:06:44;52270.81;;;-145.37;64.65
13486;BME280;6815;59.336;17.998;2023-03-01T00:09:14;52268.81;;;-145.37;64.76
13486;BME280;6815;59.336;17.998;2023-03-01T00:11:39;52246.84;;;-145.37;65.46
13486;BME280;6815;59.336;17.998;2023-03-01T00:14:05;52254.84;;;-145.37;65.51
13486;BME280;6815;59.336;17.998;2023-03-01T00:16:42;52252.84;;;-145.37;65.24
13486;BME280;6815;59.336;17.998;2023-03-01T00:19:12;52262.81;;;-145.37;64.99
13486;BME280;6815;59.336;17.998;2023-03-01T00:21:38;52248.84;;;-145.37;65.53
13486;BME280;6815;59.336;17.998;2023-03-01T00:24:04;52264.81;;;-145.37;65.77
13486;BME280;6815;59.336;17.998;2023-03-01T00:26:30;52308.75;;;-145.37;65.26
13486;BME280;6815;59.336;17.998;2023-03-01T00:28:57;52278.78;;;-145.37;65.43
13486;BME280;6815;59.336;17.998;2023-03-01T00:31:25;52242.88;;;-145.37;65.42
13486;BME280;6815;59.336;17.998;2023-03-01T00:33:55;52260.84;;;-145.37;65.15
13486;BME280;6815;59.336;17.998;2023-03-01T00:36:26;52258.84;;;-145.37;65.68
13486;BME280;6815;59.336;17.998;2023-03-01T00:38:52;52248.84;;;-145.37;66.13
13486;BME280;6815;59.336;17.998;2023-03-01T00:41:21;52250.84;;;-145.37;66.51
13486;BME280;6815;59.336;17.998;2023-03-01T00:43:52;52268.81;;;-145.37;67.28
13486;BME280;6815;59.336;17.998;2023-03-01T00:46:20;52246.84;;;-145.37;67.12
13486;BME280;6815;59.336;17.998;2023-03-01T00:48:46;52226.91;;;-145.37;67.06
13486;BME280;6815;59.336;17.998;2023-03-01T00:51:21;52246.84;;;-145.37;66.97
13486;BME280;6815;59.336;17.998;2023-03-01T00:53:47;52270.81;;;-145.37;66.81
13486;BME280;6815;59.336;17.998;2023-03-01T00:56:15;52252.84;;;-145.37;66.74
13486;BME280;6815;59.336;17.998;2023-03-01T00:58:41;52284.78;;;-145.37;66.96
13486;BME280;6815;59.336;17.998;2023-03-01T01:01:14;52230.88;;;-145.37;67.15
13486;BME280;6815;59.336;17.998;2023-03-01T01:03:54;52204.94;;;-145.37;66.54
13486;BME280;6815;59.336;17.998;2023-03-01T01:06:33;52226.91;;;-145.37;67.14
13486;BME280;6815;59.336;17.998;2023-03-01T01:08:59;52246.84;;;-145.37;67.07
13486;BME280;6815;59.336;17.998;2023-03-01T01:11:27;52290.78;;;-145.37;66.74
13486;BME280;6815;59.336;17.998;2023-03-01T01:13:53;52278.78;;;-145.37;67.28
13486;BME280;6815;59.336;17.998;2023-03-01T01:16:20;52246.84;;;-145.37;67.34
13486;BME280;6815;59.336;17.998;2023-03-01T01:18:46;52256.84;;;-145.37;67.24
13486;BME280;6815;59.336;17.998;2023-03-01T01:21:14;52270.81;;;-145.37;67.87
13486;BME280;6815;59.336;17.998;2023-03-01T01:23:41;52230.88;;;-145.37;67.60
13486;BME280;6815;59.336;17.998;2023-03-01T01:26:09;52266.81;;;-145.37;67.05
13486;BME280;6815;59.336;17.998;2023-03-01T01:28:36;52230.88;;;-145.37;67.42
13486;BME280;6815;59.336;17.998;2023-03-01T01:31:02;52234.88;;;-145.37;67.91
13486;BME280;6815;59.336;17.998;2023-03-01T01:33:27;52226.91;;;-145.37;68.03
13486;BME280;6815;59.336;17.998;2023-03-01T01:35:53;52224.91;;;-145.37;68.35
13486;BME280;6815;59.336;17.998;2023-03-01T01:38:19;52268.81;;;-145.37;68.24
13486;BME280;6815;59.336;17.998;2023-03-01T01:40:45;52228.88;;;-145.37;68.29
13486;BME280;6815;59.336;17.998;2023-03-01T01:43:26;52232.88;;;-145.37;68.69
13486;BME280;6815;59.336;17.998;2023-03-01T01:45:55;52204.94;;;-145.37;68.86
13486;BME280;6815;59.336;17.998;2023-03-01T01:48:24;52244.84;;;-145.37;69.24
13486;BME280;6815;59.336;17.998;2023-03-01T01:51:08;52194.94;;;-145.37;69.40
13486;BME280;6815;59.336;17.998;2023-03-01T01:53:35;52218.91;;;-145.37;69.98
13486;BME280;6815;59.336;17.998;2023-03-01T01:56:02;52264.81;;;-145.37;70.13
13486;BME280;6815;59.336;17.998;2023-03-01T01:58:29;52244.84;;;-145.37;69.95
13486;BME280;6815;59.336;17.998;2023-03-01T02:00:55;52278.78;;;-145.37;70.14
13486;BME280;6815;59.336;17.998;2023-03-01T02:03:27;52226.91;;;-145.37;70.19
13486;BME280;6815;59.336;17.998;2023-03-01T02:06:04;52206.94;;;-145.37;70.50
13486;BME280;6815;59.336;17.998;2023-03-01T02:08:35;52274.81;;;-145.37;70.28
13486;BME280;6815;59.336;17.998;2023-03-01T02:11:01;52230.88;;;-145.37;70.13
13486;BME280;6815;59.336;17.998;2023-03-01T02:13:30;52246.84;;;-145.37;70.16
13486;BME280;6815;59.336;17.998;2023-03-01T02:15:57;52242.88;;;-145.37;69.97
13486;BME280;6815;59.336;17.998;2023-03-01T02:18:25;52220.91;;;-145.37;69.70
13486;BME280;6815;59.336;17.998;2023-03-01T02:23:53;52268.81;;;-145.37;70.38
13486;BME280;6815;59.336;17.998;2023-03-01T02:28:50;52264.81;;;-145.37;70.69
13486;BME280;6815;59.336;17.998;2023-03-01T02:31:18;52232.88;;;-145.37;70.60
13486;BME280;6815;59.336;17.998;2023-03-01T02:34:03;52220.91;;;-145.37;70.72
13486;BME280;6815;59.336;17.998;2023-03-01T02:36:35;52226.91;;;-145.37;70.80
13486;BME280;6815;59.336;17.998;2023-03-01T02:39:04;52228.88;;;-145.37;71.01
13486;BME280;6815;59.336;17.998;2023-03-01T02:41:35;52216.91;;;-145.37;70.88
13486;BME280;6815;59.336;17.998;2023-03-01T02:44:01;52232.88;;;-145.37;70.80
13486;BME280;6815;59.336;17.998;2023-03-01T02:46:27;52240.88;;;-145.37;71.30
13486;BME280;6815;59.336;17.998;2023-03-01T02:48:54;52232.88;;;-145.37;71.54
13486;BME280;6815;59.336;17.998;2023-03-01T02:56:32;52240.88;;;-145.37;71.41
13486;BME280;6815;59.336;17.998;2023-03-01T02:58:58;52256.84;;;-145.37;71.97
13486;BME280;6815;59.336;17.998;2023-03-01T03:01:26;52226.91;;;-145.37;71.65
13486;BME280;6815;59.336;17.998;2023-03-01T03:04:09;52234.88;;;-145.37;72.32
13486;BME280;6815;59.336;17.998;2023-03-01T03:06:36;52256.84;;;-145.37;72.29
13486;BME280;6815;59.336;17.998;2023-03-01T03:09:02;52214.91;;;-145.37;71.44
13486;BME280;6815;59.336;17.998;2023-03-01T03:11:28;52226.91;;;-145.37;71.33
13486;BME280;6815;59.336;17.998;2023-03-01T03:13:55;52234.88;;;-145.37;71.63
13486;BME280;6815;59.336;17.998;2023-03-01T03:16:21;52212.91;;;-145.37;71.79
13486;BME280;6815;59.336;17.998;2023-03-01T03:18:47;52180.97;;;-145.37;72.28
13486;BME280;6815;59.336;17.998;2023-03-01T03:21:13;52224.91;;;-145.37;72.10
13486;BME280;6815;59.336;17.998;2023-03-01T03:23:38;52246.84;;;-145.37;72.30
13486;BME280;6815;59.336;17.998;2023-03-01T03:26:04;52212.91;;;-145.37;71.82
13486;BME280;6815;59.336;17.998;2023-03-01T03:28:31;52218.91;;;-145.37;72.23
13486;BME280;6815;59.336;17.998;2023-03-01T03:30:56;52246.84;;;-145.37;73.16
13486;BME280;6815;59.336;17.998;2023-03-01T03:33:24;52226.91;;;-145.37;73.10
13486;BME280;6815;59.336;17.998;2023-03-01T03:35:50;52260.84;;;-145.37;74.03
13486;BME280;6815;59.336;17.998;2023-03-01T03:38:18;52260.84;;;-145.37;73.08
13486;BME280;6815;59.336;17.998;2023-03-01T03:41:02;52252.84;;;-145.37;73.24
13486;BME280;6815;59.336;17.998;2023-03-01T03:43:29;52212.91;;;-145.37;72.51
13486;BME280;6815;59.336;17.998;2023-03-01T03:45:55;52210.91;;;-145.37;72.37
13486;BME280;6815;59.336;17.998;2023-03-01T03:48:22;52147.03;;;-145.37;72.49
13486;BME280;6815;59.336;17.998;2023-03-01T03:50:51;52190.97;;;-145.37;72.67
13486;BME280;6815;59.336;17.998;2023-03-01T03:53:17;52224.91;;;-145.37;72.53
13486;BME280;6815;59.336;17.998;2023-03-01T03:55:42;52198.94;;;-145.37;72.42
13486;BME280;6815;59.336;17.998;2023-03-01T03:58:10;52216.91;;;-145.37;72.73
13486;BME280;6815;59.336;17.998;2023-03-01T04:00:38;52240.88;;;-145.37;72.79
13486;BME280;6815;59.336;17.998;2023-03-01T04:03:05;52276.81;;;-145.37;73.97
13486;BME280;6815;59.336;17.998;2023-03-01T04:05:30;52230.88;;;-145.37;73.52
13486;BME280;6815;59.336;17.998;2023-03-01T04:07:57;52230.88;;;-145.37;73.80
13486;BME280;6815;59.336;17.998;2023-03-01T04:10:34;52242.88;;;-145.37;74.63
13486;BME280;6815;59.336;17.998;2023-03-01T04:13:01;52242.88;;;-145.37;74.36
13486;BME280;6815;59.336;17.998;2023-03-01T04:15:27;52292.78;;;-145.37;74.87
13486;BME280;6815;59.336;17.998;2023-03-01T04:17:54;52220.91;;;-145.37;74.97
13486;BME280;6815;59.336;17.998;2023-03-01T04:20:22;52228.88;;;-145.37;74.72
13486;BME280;6815;59.336;17.998;2023-03-01T04:23:04;52188.97;;;-145.37;74.68
13486;BME280;6815;59.336;17.998;2023-03-01T04:25:39;52194.94;;;-145.37;74.82
13486;BME280;6815;59.336;17.998;2023-03-01T04:28:05;52224.91;;;-145.37;74.98
13486;BME280;6815;59.336;17.998;2023-03-01T04:30:31;52196.94;;;-145.37;74.61
13486;BME280;6815;59.336;17.998;2023-03-01T04:33:06;52232.88;;;-145.37;75.36
13486;BME280;6815;59.336;17.998;2023-03-01T04:35:32;52316.72;;;-145.37;76.37
13486;BME280;6815;59.336;17.998;2023-03-01T04:37:58;52210.91;;;-145.37;75.71
13486;BME280;6815;59.336;17.998;2023-03-01T04:40:23;52200.94;;;-145.37;76.40
13486;BME280;6815;59.336;17.998;2023-03-01T04:42:49;52200.94;;;-145.37;76.33
13486;BME280;6815;59.336;17.998;2023-03-01T04:45:14;52230.88;;;-145.37;76.62
13486;BME280;6815;59.336;17.998;2023-03-01T04:47:41;52244.84;;;-145.37;75.94
13486;BME280;6815;59.336;17.998;2023-03-01T04:50:08;52173.00;;;-145.37;75.48
13486;BME280;6815;59.336;17.998;2023-03-01T04:52:35;52220.91;;;-145.37;75.13
13486;BME280;6815;59.336;17.998;2023-03-01T04:55:01;52216.91;;;-145.37;74.83
13486;BME280;6815;59.336;17.998;2023-03-01T04:57:26;52206.94;;;-145.37;75.30
13486;BME280;6815;59.336;17.998;2023-03-01T04:59:52;52228.88;;;-145.37;75.60
13486;BME280;6815;59.336;17.998;2023-03-01T05:02:17;52206.94;;;-145.37;75.90
13486;BME280;6815;59.336;17.998;2023-03-01T05:04:43;52230.88;;;-145.37;76.32
13486;BME280;6815;59.336;17.998;2023-03-01T05:07:08;52214.91;;;-145.37;76.33
13486;BME280;6815;59.336;17.998;2023-03-01T05:09:34;52246.84;;;-145.37;76.74
13486;BME280;6815;59.336;17.998;2023-03-01T05:11:59;52248.84;;;-145.37;76.76
13486;BME280;6815;59.336;17.998;2023-03-01T05:14:25;52208.94;;;-145.37;76.98
13486;BME280;6815;59.336;17.998;2023-03-01T05:16:50;52246.84;;;-145.37;76.88
13486;BME280;6815;59.336;17.998;2023-03-01T05:19:16;52238.88;;;-145.37;76.93
13486;BME280;6815;59.336;17.998;2023-03-01T05:21:42;52230.88;;;-145.37;76.87
13486;BME280;6815;59.336;17.998;2023-03-01T05:24:28;52210.91;;;-145.37;76.91
13486;BME280;6815;59.336;17.998;2023-03-01T05:26:54;52161.03;;;-145.37;77.04
13486;BME280;6815;59.336;17.998;2023-03-01T05:29:20;52226.91;;;-145.37;78.20
13486;BME280;6815;59.336;17.998;2023-03-01T05:31:59;52252.84;;;-145.37;78.21
13486;BME280;6815;59.336;17.998;2023-03-01T05:34:30;52220.91;;;-145.37;78.05
13486;BME280;6815;59.336;17.998;2023-03-01T05:36:56;52254.84;;;-145.37;78.15
13486;BME280;6815;59.336;17.998;2023-03-01T05:39:24;52266.81;;;-145.37;78.23
13486;BME280;6815;59.336;17.998;2023-03-01T05:41:58;52228.88;;;-145.37;77.57
13486;BME280;6815;59.336;17.998;2023-03-01T05:44:25;52240.88;;;-145.37;78.18
13486;BME280;6815;59.336;17.998;2023-03-01T05:46:51;52256.84;;;-145.37;78.80
13486;BME280;6815;59.336;17.998;2023-03-01T05:49:17;52196.94;;;-145.37;77.85
13486;BME280;6815;59.336;17.998;2023-03-01T05:51:45;52206.94;;;-145.37;78.22
13486;BME280;6815;59.336;17.998;2023-03-01T05:54:12;52212.91;;;-145.37;78.44
13486;BME280;6815;59.336;17.998;2023-03-01T05:56:37;52228.88;;;-145.37;77.43
13486;BME280;6815;59.336;17.998;2023-03-01T05:59:04;52246.84;;;-145.37;77.39
13486;BME280;6815;59.336;17.998;2023-03-01T06:01:33;52262.81;;;-145.37;77.15
13486;BME280;6815;59.336;17.998;2023-03-01T06:03:59;52194.94;;;-145.37;77.07
13486;BME280;6815;59.336;17.998;2023-03-01T06:06:24;52178.97;;;-145.37;77.32
13486;BME280;6815;59.336;17.998;2023-03-01T06:08:51;52246.84;;;-145.37;76.87
13486;BME280;6815;59.336;17.998;2023-03-01T06:11:16;52242.88;;;-145.37;78.44
13486;BME280;6815;59.336;17.998;2023-03-01T06:13:46;52238.88;;;-145.37;78.46
13486;BME280;6815;59.336;17.998;2023-03-01T06:16:14;52214.91;;;-145.37;77.88
13486;BME280;6815;59.336;17.998;2023-03-01T06:18:39;52208.94;;;-145.37;78.04
13486;BME280;6815;59.336;17.998;2023-03-01T06:21:06;52186.97;;;-145.37;78.02
13486;BME280;6815;59.336;17.998;2023-03-01T06:23:32;52242.88;;;-145.37;78.72
13486;BME280;6815;59.336;17.998;2023-03-01T06:25:58;52216.91;;;-145.37;79.29
13486;BME280;6815;59.336;17.998;2023-03-01T06:28:24;52232.88;;;-145.37;79.56
13486;BME280;6815;59.336;17.998;2023-03-01T06:30:50;52178.97;;;-145.37;80.20
13486;BME280;6815;59.336;17.998;2023-03-01T06:33:17;52234.88;;;-145.37;80.09
13486;BME280;6815;59.336;17.998;2023-03-01T06:35:46;52274.81;;;-145.37;79.76
13486;BME280;6815;59.336;17.998;2023-03-01T06:38:11;52270.81;;;-145.37;79.38
13486;BME280;6815;59.336;17.998;2023-03-01T06:40:37;52328.69;;;-145.37;78.65
13486;BME280;6815;59.336;17.998;2023-03-01T06:43:02;52246.84;;;-145.37;78.50
13486;BME280;6815;59.336;17.998;2023-03-01T06:45:28;52200.94;;;-145.37;78.15
13486;BME280;6815;59.336;17.998;2023-03-01T06:48:01;52216.91;;;-145.37;78.24
13486;BME280;6815;59.336;17.998;2023-03-01T06:50:27;52258.84;;;-145.37;78.45
13486;BME280;6815;59.336;17.998;2023-03-01T06:52:56;52218.91;;;-145.37;79.16
13486;BME280;6815;59.336;17.998;2023-03-01T06:55:21;52234.88;;;-145.37;78.85
13486;BME280;6815;59.336;17.998;2023-03-01T06:57:47;52218.91;;;-145.37;78.34
13486;BME280;6815;59.336;17.998;2023-03-01T07:00:13;52186.97;;;-145.37;77.37
13486;BME280;6815;59.336;17.998;2023-03-01T07:02:40;52240.88;;;-145.37;77.73
13486;BME280;6815;59.336;17.998;2023-03-01T07:05:05;52234.88;;;-145.37;77.80
13486;BME280;6815;59.336;17.998;2023-03-01T07:07:31;52222.91;;;-145.37;77.85
13486;BME280;6815;59.336;17.998;2023-03-01T07:09:56;52254.84;;;-145.37;77.88
13486;BME280;6815;59.336;17.998;2023-03-01T07:12:23;52248.84;;;-145.37;77.71
13486;BME280;6815;59.336;17.998;2023-03-01T07:14:48;52232.88;;;-145.37;77.70
13486;BME280;6815;59.336;17.998;2023-03-01T07:17:14;52268.81;;;-145.37;77.26
13486;BME280;6815;59.336;17.998;2023-03-01T07:19:39;52216.91;;;-145.37;76.99
13486;BME280;6815;59.336;17.998;2023-03-01T07:22:05;52180.97;;;-145.37;76.76
13486;BME280;6815;59.336;17.998;2023-03-01T07:24:33;52248.84;;;-145.37;76.85
13486;BME280;6815;59.336;17.998;2023-03-01T07:26:58;52246.84;;;-145.37;77.45
13486;BME280;6815;59.336;17.998;2023-03-01T07:29:24;52214.91;;;-145.37;77.27
13486;BME280;6815;59.336;17.998;2023-03-01T07:31:49;52252.84;;;-145.37;76.54
13486;BME280;6815;59.336;17.998;2023-03-01T07:34:14;52230.88;;;-145.37;76.46
13486;BME280;6815;59.336;17.998;2023-03-01T07:36:40;52240.88;;;-145.37;76.57
13486;BME280;6815;59.336;17.998;2023-03-01T07:39:10;52220.91;;;-145.37;77.14
13486;BME280;6815;59.336;17.998;2023-03-01T07:41:35;52232.88;;;-145.37;77.40
13486;BME280;6815;59.336;17.998;2023-03-01T07:44:01;52244.84;;;-145.37;77.20
13486;BME280;6815;59.336;17.998;2023-03-01T07:46:26;52240.88;;;-145.37;76.74
13486;BME280;6815;59.336;17.998;2023-03-01T07:48:52;52196.94;;;-145.37;76.40
13486;BME280;6815;59.336;17.998;2023-03-01T07:51:17;52252.84;;;-145.37;76.80
13486;BME280;6815;59.336;17.998;2023-03-01T07:53:46;52212.91;;;-145.37;76.92
13486;BME280;6815;59.336;17.998;2023-03-01T07:56:13;52216.91;;;-145.37;76.87
13486;BME280;6815;59.336;17.998;2023-03-01T07:58:41;52240.88;;;-145.37;76.82
13486;BME280;6815;59.336;17.998;2023-03-01T08:01:09;52208.94;;;-145.37;77.09
13486;BME280;6815;59.336;17.998;2023-03-01T08:03:36;52184.97;;;-145.37;77.01
13486;BME280;6815;59.336;17.998;2023-03-01T08:06:03;52254.84;;;-145.37;76.40
13486;BME280;6815;59.336;17.998;2023-03-01T08:08:30;52226.91;;;-145.37;76.48
13486;BME280;6815;59.336;17.998;2023-03-01T08:11:00;52244.84;;;-145.37;76.23
13486;BME280;6815;59.336;17.998;2023-03-01T08:13:26;52234.88;;;-145.37;76.01
13486;BME280;6815;59.336;17.998;2023-03-01T08:15:52;52242.88;;;-145.37;76.11
13486;BME280;6815;59.336;17.998;2023-03-01T08:18:18;52216.91;;;-145.37;76.02
13486;BME280;6815;59.336;17.998;2023-03-01T08:20:44;52228.88;;;-145.37;75.46
13486;BME280;6815;59.336;17.998;2023-03-01T08:23:10;52198.94;;;-145.37;75.90
13486;BME280;6815;59.336;17.998;2023-03-01T08:25:36;52228.88;;;-145.37;76.48
13486;BME280;6815;59.336;17.998;2023-03-01T08:28:02;52248.84;;;-145.37;76.22
13486;BME280;6815;59.336;17.998;2023-03-01T08:30:27;52264.81;;;-145.37;76.27
13486;BME280;6815;59.336;17.998;2023-03-01T08:32:53;52226.91;;;-145.37;75.98
13486;BME280;6815;59.336;17.998;2023-03-01T08:35:19;52256.84;;;-145.37;75.29
13486;BME280;6815;59.336;17.998;2023-03-01T08:37:45;52248.84;;;-145.37;74.96
13486;BME280;6815;59.336;17.998;2023-03-01T08:40:11;52254.84;;;-145.37;75.08
13486;BME280;6815;59.336;17.998;2023-03-01T08:42:39;52224.91;;;-145.37;74.95
13486;BME280;6815;59.336;17.998;2023-03-01T08:45:05;52222.91;;;-145.37;74.07
13486;BME280;6815;59.336;17.998;2023-03-01T08:47:30;52232.88;;;-145.37;73.80
13486;BME280;6815;59.336;17.998;2023-03-01T08:49:56;52240.88;;;-145.37;74.02
13486;BME280;6815;59.336;17.998;2023-03-01T08:52:21;52250.84;;;-145.37;73.92
13486;BME280;6815;59.336;17.998;2023-03-01T08:54:48;52258.84;;;-145.37;73.48
13486;BME280;6815;59.336;17.998;2023-03-01T08:57:14;52264.81;;;-145.37;73.25
13486;BME280;6815;59.336;17.998;2023-03-01T08:59:39;52266.81;;;-145.37;73.61
13486;BME280;6815;59.336;17.998;2023-03-01T09:02:12;52272.81;;;-145.37;72.99
13486;BME280;6815;59.336;17.998;2023-03-01T09:04:41;52266.81;;;-145.37;72.41
13486;BME280;6815;59.336;17.998;2023-03-01T09:07:06;52228.88;;;-145.37;72.25
13486;BME280;6815;59.336;17.998;2023-03-01T09:09:32;52240.88;;;-145.37;72.03
13486;BME280;6815;59.336;17.998;2023-03-01T09:11:57;52248.84;;;-145.37;71.55
13486;BME280;6815;59.336;17.998;2023-03-01T09:14:23;52230.88;;;-145.37;71.61
13486;BME280;6815;59.336;17.998;2023-03-01T09:16:48;52250.84;;;-145.37;71.24
13486;BME280;6815;59.336;17.998;2023-03-01T09:19:14;52254.84;;;-145.37;71.40
13486;BME280;6815;59.336;17.998;2023-03-01T09:21:39;52240.88;;;-145.37;70.57
13486;BME280;6815;59.336;17.998;2023-03-01T09:24:06;52296.75;;;-145.37;70.64
13486;BME280;6815;59.336;17.998;2023-03-01T09:26:32;52242.88;;;-145.37;70.84
13486;BME280;6815;59.336;17.998;2023-03-01T09:28:57;52246.84;;;-145.37;70.79
13486;BME280;6815;59.336;17.998;2023-03-01T09:31:24;52248.84;;;-145.37;70.23
13486;BME280;6815;59.336;17.998;2023-03-01T09:33:52;52266.81;;;-145.37;70.50
13486;BME280;6815;59.336;17.998;2023-03-01T09:36:21;52214.91;;;-145.37;70.16
13486;BME280;6815;59.336;17.998;2023-03-01T09:38:47;52270.81;;;-145.37;69.58
13486;BME280;6815;59.336;17.998;2023-03-01T09:44:01;52244.84;;;-145.37;69.17
13486;BME280;6815;59.336;17.998;2023-03-01T09:46:33;52230.88;;;-145.37;68.85
13486;BME280;6815;59.336;17.998;2023-03-01T09:49:04;52258.84;;;-145.37;68.57
13486;BME280;6815;59.336;17.998;2023-03-01T09:51:35;52238.88;;;-145.37;68.40
13486;BME280;6815;59.336;17.998;2023-03-01T09:54:02;52268.81;;;-145.37;68.62
13486;BME280;6815;59.336;17.998;2023-03-01T09:56:41;52260.84;;;-145.37;68.06
13486;BME280;6815;59.336;17.998;2023-03-01T10:10:08;52264.81;;;-145.37;67.32
13486;BME280;6815;59.336;17.998;2023-03-01T10:12:39;52212.91;;;-145.37;67.05
13486;BME280;6815;59.336;17.998;2023-03-01T10:15:18;52286.78;;;-145.37;66.44
13486;BME280;6815;59.336;17.998;2023-03-01T10:17:50;52268.81;;;-145.37;66.73
13486;BME280;6815;59.336;17.998;2023-03-01T10:20:24;52244.84;;;-145.37;66.61
13486;BME280;6815;59.336;17.998;2023-03-01T10:22:51;52252.84;;;-145.37;66.80
13486;BME280;6815;59.336;17.998;2023-03-01T10:28:57;52260.84;;;-145.37;66.08
13486;BME280;6815;59.336;17.998;2023-03-01T10:31:01;52276.81;;;-145.37;65.25
13486;BME280;6815;59.336;17.998;2023-03-01T10:33:32;52218.91;;;-145.37;65.62
13486;BME280;6815;59.336;17.998;2023-03-01T10:35:58;52278.78;;;-145.37;65.67
13486;BME280;6815;59.336;17.998;2023-03-01T10:38:24;52228.88;;;-145.37;64.94
13486;BME280;6815;59.336;17.998;2023-03-01T10:43:30;52274.81;;;-145.37;64.91
13486;BME280;6815;59.336;17.998;2023-03-01T10:45:57;52260.84;;;-145.37;64.51
13486;BME280;6815;59.336;17.998;2023-03-01T10:48:24;52248.84;;;-145.37;64.83
13486;BME280;6815;59.336;17.998;2023-03-01T10:53:41;52288.78;;;-145.37;63.93
13486;BME280;6815;59.336;17.998;2023-03-01T10:58:36;52224.91;;;-145.37;64.28
13486;BME280;6815;59.336;17.998;2023-03-01T11:03:43;52232.88;;;-145.37;63.18
13486;BME280;6815;59.336;17.998;2023-03-01T11:08:55;52258.84;;;-145.37;63.42
13486;BME280;6815;59.336;17.998;2023-03-01T11:11:33;52222.91;;;-145.37;63.87
13486;BME280;6815;59.336;17.998;2023-03-01T11:14:22;52358.66;;;-145.37;63.24
13486;BME280;6815;59.336;17.998;2023-03-01T11:16:49;52246.84;;;-145.37;63.29
13486;BME280;6815;59.336;17.998;2023-03-01T11:19:23;52214.91;;;-145.37;62.48
13486;BME280;6815;59.336;17.998;2023-03-01T11:22:02;52250.84;;;-145.37;63.09
13486;BME280;6815;59.336;17.998;2023-03-01T11:24:43;52252.84;;;-145.37;63.13
13486;BME280;6815;59.336;17.998;2023-03-01T11:27:32;52242.88;;;-145.37;63.11
13486;BME280;6815;59.336;17.998;2023-03-01T11:30:04;52262.81;;;-145.37;63.20
13486;BME280;6815;59.336;17.998;2023-03-01T11:32:43;52200.94;;;-145.37;62.95
13486;BME280;6815;59.336;17.998;2023-03-01T11:35:23;52272.81;;;-145.37;62.29
13486;BME280;6815;59.336;17.998;2023-03-01T11:43:09;52254.84;;;-145.37;61.76
13486;BME280;6815;59.336;17.998;2023-03-01T11:45:47;52230.88;;;-145.37;61.58
13486;BME280;6815;59.336;17.998;2023-03-01T11:51:24;52274.81;;;-145.37;61.72
13486;BME280;6815;59.336;17.998;2023-03-01T11:56:56;52260.84;;;-145.37;61.00
13486;BME280;6815;59.336;17.998;2023-03-01T12:08:38;52248.84;;;-145.37;60.74
13486;BME280;6815;59.336;17.998;2023-03-01T12:30:38;52230.88;;;-145.37;59.83
13486;BME280;6815;59.336;17.998;2023-03-01T12:33:42;52258.84;;;-145.37;59.61
13486;BME280;6815;59.336;17.998;2023-03-01T12:36:23;52230.88;;;-145.37;59.49
13486;BME280;6815;59.336;17.998;2023-03-01T12:39:09;52276.81;;;-145.37;59.80
13486;BME280;6815;59.336;17.998;2023-03-01T12:41:47;52256.84;;;-145.37;59.10
13486;BME280;6815;59.336;17.998;2023-03-01T12:44:33;52260.84;;;-145.37;59.30
13486;BME280;6815;59.336;17.998;2023-03-01T12:50:01;52220.91;;;-145.37;59.35
13486;BME280;6815;59.336;17.998;2023-03-01T12:52:47;52262.81;;;-145.37;58.74
13486;BME280;6815;59.336;17.998;2023-03-01T12:55:35;52284.78;;;-145.37;58.62
13486;BME280;6815;59.336;17.998;2023-03-01T13:03:21;52218.91;;;-145.37;58.09
13486;BME280;6815;59.336;17.998;2023-03-01T13:08:49;52282.78;;;-145.37;58.06
13486;BME280;6815;59.336;17.998;2023-03-01T13:11:23;52262.81;;;-145.37;57.91
13486;BME280;6815;59.336;17.998;2023-03-01T13:13:49;52256.84;;;-145.37;57.96
13486;BME280;6815;59.336;17.998;2023-03-01T13:19:15;52260.84;;;-145.37;58.01
13486;BME280;6815;59.336;17.998;2023-03-01T13:21:42;52260.84;;;-145.37;57.55
13486;BME280;6815;59.336;17.998;2023-03-01T13:24:28;52244.84;;;-145.37;57.82
13486;BME280;6815;59.336;17.998;2023-03-01T13:29:56;52276.81;;;-145.37;57.57
13486;BME280;6815;59.336;17.998;2023-03-01T13:32:33;52224.91;;;-145.37;57.21
13486;BME280;6815;59.336;17.998;2023-03-01T13:35:03;52284.78;;;-145.37;57.28
13486;BME280;6815;59.336;17.998;2023-03-01T13:37:48;52250.84;;;-145.37;57.68
13486;BME280;6815;59.336;17.998;2023-03-01T13:42:44;52256.84;;;-145.37;57.39
13486;BME280;6815;59.336;17.998;2023-03-01T13:45:17;52272.81;;;-145.37;56.89
13486;BME280;6815;59.336;17.998;2023-03-01T13:47:45;52268.81;;;-145.37;56.45
13486;BME280;6815;59.336;17.998;2023-03-01T13:50:20;52230.88;;;-145.37;56.79
13486;BME280;6815;59.336;17.998;2023-03-01T13:53:02;52242.88;;;-145.37;56.15
13486;BME280;6815;59.336;17.998;2023-03-01T13:58:00;52240.88;;;-145.37;56.15
13486;BME280;6815;59.336;17.998;2023-03-01T14:00:36;52234.88;;;-145.37;56.23
13486;BME280;6815;59.336;17.998;2023-03-01T14:03:14;52270.81;;;-145.37;56.28
13486;BME280;6815;59.336;17.998;2023-03-01T14:05:43;52244.84;;;-145.37;57.27
13486;BME280;6815;59.336;17.998;2023-03-01T14:08:24;52230.88;;;-145.37;56.58
13486;BME280;6815;59.336;17.998;2023-03-01T14:11:15;52214.91;;;-145.37;56.75
13486;BME280;6815;59.336;17.998;2023-03-01T14:13:54;52258.84;;;-145.37;56.74
13486;BME280;6815;59.336;17.998;2023-03-01T14:21:44;52276.81;;;-145.37;55.96
13486;BME280;6815;59.336;17.998;2023-03-01T14:24:21;52292.78;;;-145.37;55.98
13486;BME280;6815;59.336;17.998;2023-03-01T14:26:49;52238.88;;;-145.37;55.96
13486;BME280;6815;59.336;17.998;2023-03-01T14:29:33;52260.84;;;-145.37;56.15
13486;BME280;6815;59.336;17.998;2023-03-01T14:32:21;52294.75;;;-145.37;55.58
13486;BME280;6815;59.336;17.998;2023-03-01T14:34:48;52270.81;;;-145.37;55.40
13486;BME280;6815;59.336;17.998;2023-03-01T14:39:43;52246.84;;;-145.37;54.69
13486;BME280;6815;59.336;17.998;2023-03-01T14:42:09;52242.88;;;-145.37;54.82